createdAt,value
2022-11-29T00:02:19.934Z,1.91
2022-11-29T00:05:06.511Z,1.98
2022-11-29T00:07:49.633Z,1.89
2022-11-29T00:10:43.202Z,1.84
2022-11-29T00:13:29.453Z,1.83
2022-11-29T00:16:28.429Z,2.05
2022-11-29T00:19:08.770Z,2.06
2022-11-29T00:21:57.148Z,1.75
2022-11-29T00:24:48.539Z,1.79
2022-11-29T00:27:32.369Z,1.74
2022-11-29T00:30:16.783Z,1.69
2022-11-29T00:33:04.978Z,1.63
2022-11-29T00:35:46.843Z,1.50
2022-11-29T00:38:30.984Z,1.48
2022-11-29T00:41:27.279Z,1.72
2022-11-29T00:44:16.753Z,1.64
2022-11-29T00:47:03.317Z,1.43
2022-11-29T00:49:40.676Z,1.07
2022-11-29T00:52:26.473Z,1.00
2022-11-29T00:55:23.440Z,1.25
2022-11-29T00:58:09.820Z,1.05
2022-11-29T01:00:55.462Z,0.93
2022-11-29T01:03:41.120Z,0.97
2022-11-29T01:06:23.034Z,0.96
2022-11-29T01:09:13.003Z,1.02
2022-11-29T01:11:55.044Z,0.98
2022-11-29T01:14:46.583Z,0.91
2022-11-29T01:17:43.990Z,1.28
2022-11-29T01:20:21.477Z,1.13
2022-11-29T01:23:08.433Z,1.42
2022-11-29T01:25:52.773Z,1.37
2022-11-29T01:28:37.815Z,1.46
2022-11-29T01:31:20.188Z,1.52
2022-11-29T01:34:10.023Z,1.55
2022-11-29T01:36:53.313Z,1.60
2022-11-29T01:39:39.988Z,1.39
2022-11-29T01:42:32.370Z,1.10
2022-11-29T01:45:32.202Z,1.13
2022-11-29T01:48:17.034Z,1.13
2022-11-29T01:51:01.419Z,1.11
2022-11-29T01:53:44.716Z,1.33
2022-11-29T01:56:36.138Z,1.28
2022-11-29T01:59:17.386Z,1.27
2022-11-29T02:01:52.235Z,1.03
2022-11-29T02:04:37.302Z,1.06
2022-11-29T02:07:23.788Z,1.19
2022-11-29T02:10:02.020Z,1.13
2022-11-29T02:13:32.289Z,1.07
2022-11-29T02:17:03.147Z,1.05
2022-11-29T02:20:00.955Z,1.00
2022-11-29T02:23:03.970Z,1.10
2022-11-29T02:26:22.452Z,1.16
2022-11-29T02:29:29.349Z,1.28
2022-11-29T02:32:40.928Z,1.12
2022-11-29T02:35:55.955Z,1.55
2022-11-29T02:39:12.871Z,1.45
2022-11-29T02:43:01.839Z,1.36
2022-11-29T02:46:05.953Z,1.55
2022-11-29T02:49:12.450Z,1.62
2022-11-29T02:52:46.380Z,1.43
2022-11-29T02:56:12.286Z,1.23
2022-11-29T02:59:22.817Z,1.10
2022-11-29T03:02:45.156Z,1.06
2022-11-29T03:05:39.019Z,1.16
2022-11-29T03:08:46.997Z,1.25
2022-11-29T03:11:42.610Z,1.17
2022-11-29T03:14:22.974Z,1.17
2022-11-29T03:17:31.630Z,1.16
2022-11-29T03:21:07.997Z,1.27
2022-11-29T03:24:12.327Z,1.36
2022-11-29T03:26:55.148Z,1.29
2022-11-29T03:29:49.010Z,1.33
2022-11-29T03:32:48.747Z,1.23
2022-11-29T03:35:42.889Z,1.15
2022-11-29T03:39:08.405Z,1.26
2022-11-29T03:42:00.630Z,1.25
2022-11-29T03:44:54.055Z,1.36
2022-11-29T03:47:52.051Z,1.34
2022-11-29T03:50:58.469Z,1.34
2022-11-29T03:53:50.971Z,1.35
2022-11-29T03:56:45.575Z,1.36
2022-11-29T03:59:56.311Z,1.36
2022-11-29T04:02:37.095Z,1.40
2022-11-29T04:05:27.754Z,1.25
2022-11-29T04:08:49.130Z,1.35
2022-11-29T04:11:59.955Z,1.13
2022-11-29T04:15:15.442Z,1.14
2022-11-29T04:18:13.579Z,1.18
2022-11-29T04:21:23.260Z,1.28
2022-11-29T04:24:22.813Z,1.24
2022-11-29T04:27:20.327Z,1.28
2022-11-29T04:30:32.853Z,1.25
2022-11-29T04:33:35.225Z,1.37
2022-11-29T04:37:04.268Z,1.08
2022-11-29T04:40:07.573Z,0.94
2022-11-29T04:43:22.552Z,0.94
2022-11-29T04:46:11.969Z,1.11
2022-11-29T04:49:12.109Z,1.08
2022-11-29T04:52:14.579Z,1.02
2022-11-29T04:55:27.636Z,1.07
2022-11-29T04:58:25.382Z,0.95
2022-11-29T05:01:13.120Z,1.03
2022-11-29T05:03:57.513Z,1.00
2022-11-29T05:07:10.913Z,1.03
2022-11-29T05:10:18.911Z,1.08
2022-11-29T05:13:32.214Z,0.96
2022-11-29T05:20:34.510Z,0.87
2022-11-29T05:24:06.519Z,0.94
2022-11-29T05:26:51.625Z,0.82
2022-11-29T05:29:43.332Z,0.93
2022-11-29T05:32:41.017Z,0.89
2022-11-29T05:35:58.649Z,0.99
2022-11-29T05:39:13.970Z,0.91
2022-11-29T05:41:58.010Z,0.93
2022-11-29T05:44:57.776Z,1.03
2022-11-29T05:48:05.445Z,1.08
2022-11-29T05:50:53.604Z,1.13
2022-11-29T05:57:37.724Z,1.16
2022-11-29T06:00:22.994Z,1.12
2022-11-29T06:03:13.136Z,0.98
2022-11-29T06:06:10.965Z,0.94
2022-11-29T06:09:14.261Z,0.79
2022-11-29T06:12:06.890Z,0.65
2022-11-29T06:15:13.967Z,0.77
2022-11-29T06:18:23.668Z,0.63
2022-11-29T06:21:23.950Z,0.75
2022-11-29T06:24:34.477Z,0.83
2022-11-29T06:27:44.492Z,0.75
2022-11-29T06:30:26.688Z,0.76
2022-11-29T06:33:49.419Z,1.01
2022-11-29T06:36:34.610Z,0.99
2022-11-29T06:39:17.962Z,0.75
2022-11-29T06:42:01.880Z,0.98
2022-11-29T06:44:43.346Z,1.06
2022-11-29T06:48:19.174Z,1.01
2022-11-29T06:51:02.987Z,1.01
2022-11-29T06:54:02.075Z,1.11
2022-11-29T06:56:49.909Z,1.14
2022-11-29T06:59:37.565Z,1.21
2022-11-29T07:02:34.025Z,1.14
2022-11-29T07:05:42.854Z,1.01
2022-11-29T07:08:29.003Z,1.03
2022-11-29T07:11:05.551Z,0.93
2022-11-29T07:13:46.673Z,0.98
2022-11-29T07:16:46.580Z,1.16
2022-11-29T07:19:36.819Z,1.27
2022-11-29T07:22:47.856Z,1.30
2022-11-29T07:25:31.167Z,1.41
2022-11-29T07:28:34.251Z,1.22
2022-11-29T07:31:48.117Z,1.13
2022-11-29T07:35:13.410Z,1.13
2022-11-29T07:38:22.147Z,1.28
2022-11-29T07:41:33.273Z,1.44
2022-11-29T07:44:26.714Z,1.36
2022-11-29T07:47:17.285Z,1.25
2022-11-29T07:49:57.892Z,1.30
2022-11-29T07:52:37.008Z,1.28
2022-11-29T07:55:32.874Z,1.27
2022-11-29T07:58:20.981Z,1.41
2022-11-29T08:00:56.255Z,1.42
2022-11-29T08:03:29.456Z,1.52
2022-11-29T08:06:12.749Z,1.52
2022-11-29T08:08:53.643Z,1.23
2022-11-29T08:11:36.900Z,1.41
2022-11-29T08:14:07.891Z,1.39
2022-11-29T08:16:52.338Z,1.26
2022-11-29T08:19:30.928Z,1.57
2022-11-29T08:22:12.131Z,1.22
2022-11-29T08:25:00.923Z,1.05
2022-11-29T08:27:37.380Z,0.96
2022-11-29T08:30:22.938Z,1.15
2022-11-29T08:32:56.531Z,1.30
2022-11-29T08:35:29.938Z,1.40
2022-11-29T08:38:17.034Z,1.45
2022-11-29T08:40:49.476Z,1.55
2022-11-29T08:43:32.583Z,1.90
2022-11-29T08:46:11.353Z,1.79
2022-11-29T08:48:55.793Z,1.85
2022-11-29T08:51:45.390Z,1.82
2022-11-29T08:54:21.137Z,1.46
2022-11-29T09:00:00.677Z,1.82
2022-11-29T09:02:43.968Z,2.02
2022-11-29T09:05:24.221Z,2.19
2022-11-29T09:08:02.958Z,1.90
2022-11-29T09:10:51.787Z,1.81
2022-11-29T09:13:39.314Z,1.63
2022-11-29T09:16:25.340Z,2.00
2022-11-29T09:19:19.929Z,2.27
2022-11-29T09:21:57.666Z,2.10
2022-11-29T09:24:55.863Z,2.39
2022-11-29T09:27:44.641Z,2.35
2022-11-29T09:30:26.542Z,2.30
2022-11-29T09:33:16.217Z,2.38
2022-11-29T09:35:54.234Z,2.46
2022-11-29T09:38:42.921Z,2.38
2022-11-29T09:41:48.978Z,2.20
2022-11-29T09:44:51.314Z,2.33
2022-11-29T09:47:53.404Z,2.26
2022-11-29T09:50:48.547Z,2.19
2022-11-29T09:53:38.045Z,2.42
2022-11-29T09:56:30.564Z,2.20
2022-11-29T09:59:29.082Z,2.22
2022-11-29T10:02:41.047Z,2.42
2022-11-29T10:05:46.676Z,2.50
2022-11-29T10:08:27.050Z,2.48
2022-11-29T10:11:25.136Z,2.64
2022-11-29T10:14:21.561Z,2.71
2022-11-29T10:17:15.431Z,2.86
2022-11-29T10:20:43.531Z,3.18
2022-11-29T10:23:35.422Z,3.35
2022-11-29T10:26:21.045Z,3.11
2022-11-29T10:29:01.917Z,2.80
2022-11-29T10:31:47.090Z,2.88
2022-11-29T10:34:27.409Z,2.93
2022-11-29T10:37:13.913Z,2.71
2022-11-29T10:40:04.203Z,2.88
2022-11-29T10:42:54.991Z,2.51
2022-11-29T10:45:50.270Z,2.71
2022-11-29T10:48:34.345Z,2.79
2022-11-29T10:51:19.144Z,2.76
2022-11-29T10:54:08.592Z,2.44
2022-11-29T10:56:42.965Z,2.28
2022-11-29T10:59:24.340Z,2.49
2022-11-29T11:02:03.376Z,2.20
2022-11-29T11:04:50.132Z,2.23
2022-11-29T11:07:43.131Z,2.41
2022-11-29T11:10:39.411Z,2.57
2022-11-29T11:13:26.934Z,2.59
2022-11-29T11:16:23.544Z,2.80
2022-11-29T11:19:00.665Z,2.63
2022-11-29T11:21:46.375Z,2.79
2022-11-29T11:24:32.169Z,3.06
2022-11-29T11:27:17.370Z,2.66
2022-11-29T11:30:02.019Z,2.50
2022-11-29T11:32:46.243Z,2.75
2022-11-29T11:35:30.071Z,2.81
2022-11-29T11:38:27.992Z,2.77
2022-11-29T11:41:18.699Z,3.09
2022-11-29T11:43:59.913Z,3.26
2022-11-29T11:46:50.346Z,3.57
2022-11-29T11:50:08.901Z,3.52
2022-11-29T11:53:00.258Z,3.33
2022-11-29T11:56:10.891Z,3.50
2022-11-29T11:58:56.834Z,3.80
2022-11-29T12:01:48.420Z,3.82
2022-11-29T12:04:48.238Z,3.96
2022-11-29T12:08:07.449Z,3.94
2022-11-29T12:11:07.461Z,3.99
2022-11-29T12:13:51.303Z,4.00
2022-11-29T12:16:49.069Z,4.12
2022-11-29T12:19:41.412Z,4.30
2022-11-29T12:22:28.071Z,4.56
2022-11-29T12:25:15.867Z,4.80
2022-11-29T12:27:57.846Z,4.59
2022-11-29T12:30:36.270Z,4.49
2022-11-29T12:33:46.745Z,4.59
2022-11-29T12:36:42.450Z,4.47
2022-11-29T12:39:57.096Z,4.49
2022-11-29T12:43:07.357Z,4.38
2022-11-29T12:46:02.317Z,4.44
2022-11-29T12:48:50.862Z,4.28
2022-11-29T12:52:01.383Z,4.17
2022-11-29T12:55:11.891Z,4.13
2022-11-29T12:58:04.776Z,4.12
2022-11-29T13:00:55.692Z,4.05
2022-11-29T13:03:59.348Z,4.07
2022-11-29T13:06:58.851Z,4.10
2022-11-29T13:09:34.044Z,4.16
2022-11-29T13:12:43.446Z,4.32
2022-11-29T13:15:24.906Z,4.30
2022-11-29T13:18:09.122Z,4.09
2022-11-29T13:20:52.310Z,4.30
2022-11-29T13:24:08.520Z,4.55
2022-11-29T13:26:54.391Z,4.63
2022-11-29T13:29:41.071Z,4.70
2022-11-29T13:32:32.186Z,4.70
2022-11-29T13:35:27.933Z,4.56
2022-11-29T13:38:30.891Z,4.60
2022-11-29T13:41:34.519Z,4.53
2022-11-29T13:44:40.157Z,4.54
2022-11-29T13:47:33.527Z,4.50
2022-11-29T13:51:07.302Z,4.59
2022-11-29T13:53:51.159Z,4.69
2022-11-29T13:57:01.929Z,4.72
2022-11-29T13:59:50.965Z,4.48
2022-11-29T14:02:38.458Z,4.31
2022-11-29T14:05:31.213Z,4.31
2022-11-29T14:12:01.643Z,4.23
2022-11-29T14:15:06.900Z,4.18
2022-11-29T14:17:49.299Z,3.72
2022-11-29T14:21:02.710Z,3.47
2022-11-29T14:23:56.570Z,3.39
2022-11-29T14:26:39.445Z,3.28
2022-11-29T14:29:59.549Z,3.23
2022-11-29T14:32:49.894Z,3.26
2022-11-29T14:35:51.985Z,3.14
2022-11-29T14:38:36.070Z,3.08
2022-11-29T14:41:25.313Z,2.88
2022-11-29T14:44:21.137Z,2.65
2022-11-29T14:47:21.349Z,2.45
2022-11-29T14:50:03.394Z,2.36
2022-11-29T14:53:04.848Z,2.16
2022-11-29T14:55:48.300Z,2.07
2022-11-29T14:58:31.434Z,2.09
2022-11-29T15:01:14.577Z,2.03
2022-11-29T15:04:01.014Z,1.90
2022-11-29T15:06:53.166Z,1.75
2022-11-29T15:09:34.534Z,1.63
2022-11-29T15:12:21.978Z,1.51
2022-11-29T15:15:22.229Z,1.38
2022-11-29T15:18:11.086Z,1.30
2022-11-29T15:21:32.319Z,1.20
2022-11-29T15:24:15.569Z,0.94
2022-11-29T15:27:03.914Z,0.82
2022-11-29T15:29:57.243Z,0.68
2022-11-29T15:32:39.997Z,0.54
2022-11-29T15:35:18.670Z,0.47
2022-11-29T15:37:56.970Z,0.45
2022-11-29T15:40:40.956Z,0.57
2022-11-29T15:43:40.218Z,0.44
2022-11-29T15:46:27.908Z,0.31
2022-11-29T15:49:26.656Z,0.27
2022-11-29T15:52:22.837Z,0.17
2022-11-29T15:55:09.330Z,0.18
2022-11-29T15:57:51.703Z,0.09
2022-11-29T16:00:32.933Z,0.08
2022-11-29T16:03:31.980Z,0.16
2022-11-29T16:06:21.442Z,0.19
2022-11-29T16:08:58.193Z,0.24
2022-11-29T16:11:37.067Z,0.37
2022-11-29T16:14:59.493Z,0.37
2022-11-29T16:17:50.375Z,0.39
2022-11-29T16:20:25.574Z,0.41
2022-11-29T16:23:35.788Z,0.41
2022-11-29T16:26:23.981Z,0.30
2022-11-29T16:29:00.579Z,0.36
2022-11-29T16:31:53.929Z,0.24
2022-11-29T16:34:35.022Z,0.25
2022-11-29T16:37:40.582Z,0.21
2022-11-29T16:40:34.780Z,0.18
2022-11-29T16:43:23.509Z,0.20
2022-11-29T16:46:22.724Z,0.20
2022-11-29T16:49:01.659Z,0.16
2022-11-29T16:51:51.866Z,0.12
2022-11-29T16:54:44.494Z,0.16
2022-11-29T16:57:40.853Z,0.17
2022-11-29T17:00:57.430Z,0.13
2022-11-29T17:03:32.760Z,0.04
2022-11-29T17:06:32.971Z,0.04
2022-11-29T17:09:10.444Z,-0.11
2022-11-29T17:11:59.934Z,-0.16
2022-11-29T17:14:36.063Z,-0.31
2022-11-29T17:17:22.262Z,-0.36
2022-11-29T17:20:03.501Z,-0.18
2022-11-29T17:22:45.445Z,-0.20
2022-11-29T17:25:21.151Z,-0.25
2022-11-29T17:28:04.320Z,-0.33
2022-11-29T17:30:45.874Z,-0.37
